createdAt,value
2018-09-19T00:02:27.352Z,2.60
2018-09-19T00:04:55.561Z,3.07
2018-09-19T00:07:23.776Z,2.73
2018-09-19T00:09:51.944Z,3.00
2018-09-19T00:12:20.138Z,10.80
2018-09-19T00:14:48.335Z,8.20
2018-09-19T00:17:16.607Z,12.03
2018-09-19T00:19:44.874Z,5.20
2018-09-19T00:22:13.076Z,2.97
2018-09-19T00:24:41.292Z,3.03
2018-09-19T00:27:09.496Z,2.27
2018-09-19T00:29:37.989Z,3.07
2018-09-19T00:32:06.181Z,4.87
2018-09-19T00:34:34.423Z,6.73
2018-09-19T00:37:02.626Z,5.40
2018-09-19T00:39:30.837Z,4.07
2018-09-19T00:41:59.032Z,4.13
2018-09-19T00:44:27.212Z,3.50
2018-09-19T00:46:55.408Z,3.30
2018-09-19T00:49:23.595Z,3.77
2018-09-19T00:51:51.826Z,3.80
2018-09-19T00:54:20.018Z,3.50
2018-09-19T00:56:52.244Z,3.17
2018-09-19T00:59:20.849Z,2.87
2018-09-19T01:01:49.064Z,3.10
2018-09-19T01:04:17.246Z,3.00
2018-09-19T01:06:45.446Z,3.40
2018-09-19T01:09:13.645Z,2.70
2018-09-19T01:11:41.838Z,3.20
2018-09-19T01:14:11.014Z,3.00
2018-09-19T01:16:39.210Z,2.93
2018-09-19T01:19:07.413Z,2.70
2018-09-19T01:21:35.644Z,2.87
2018-09-19T01:24:03.835Z,2.50
2018-09-19T01:26:32.039Z,2.83
2018-09-19T01:29:00.240Z,2.90
2018-09-19T01:31:28.488Z,3.30
2018-09-19T01:33:56.637Z,3.00
2018-09-19T01:36:25.348Z,3.00
2018-09-19T01:38:53.566Z,2.80
2018-09-19T01:41:21.793Z,3.00
2018-09-19T01:43:49.977Z,3.10
2018-09-19T01:46:18.203Z,2.90
2018-09-19T01:48:46.421Z,3.27
2018-09-19T01:51:14.612Z,2.93
2018-09-19T01:53:42.802Z,3.17
2018-09-19T01:56:11.024Z,2.93
2018-09-19T01:58:39.211Z,2.70
2018-09-19T02:01:07.403Z,2.53
2018-09-19T02:03:35.804Z,4.00
2018-09-19T02:06:04.005Z,28.40
2018-09-19T02:08:32.203Z,5.90
2018-09-19T02:11:00.407Z,5.23
2018-09-19T02:13:28.631Z,11.13
2018-09-19T02:15:56.845Z,4.63
2018-09-19T02:18:25.178Z,3.57
2018-09-19T02:20:53.365Z,3.93
2018-09-19T02:23:21.696Z,3.80
2018-09-19T02:25:54.398Z,3.93
2018-09-19T02:28:23.333Z,3.30
2018-09-19T02:30:51.696Z,2.93
2018-09-19T02:33:25.468Z,2.73
2018-09-19T02:35:53.749Z,2.93
2018-09-19T02:38:22.327Z,3.37
2018-09-19T02:40:50.553Z,3.20
2018-09-19T02:43:18.744Z,3.50
2018-09-19T02:45:46.967Z,2.83
2018-09-19T02:48:15.188Z,2.80
2018-09-19T02:50:43.461Z,2.80
2018-09-19T02:53:11.657Z,3.20
2018-09-19T02:55:39.895Z,3.20
2018-09-19T02:58:08.088Z,3.20
2018-09-19T03:00:36.319Z,2.70
2018-09-19T03:03:05.128Z,2.83
2018-09-19T03:05:34.294Z,2.73
2018-09-19T03:08:02.484Z,2.70
2018-09-19T03:10:31.181Z,2.97
2018-09-19T03:12:59.598Z,2.80
2018-09-19T03:15:27.817Z,2.90
2018-09-19T03:17:56.013Z,2.57
2018-09-19T03:20:24.219Z,2.40
2018-09-19T03:22:52.452Z,3.10
2018-09-19T03:25:20.682Z,2.90
2018-09-19T03:27:48.922Z,2.63
2018-09-19T03:30:17.155Z,2.80
2018-09-19T03:32:45.373Z,2.70
2018-09-19T03:35:13.636Z,2.87
2018-09-19T03:37:41.797Z,2.97
2018-09-19T03:40:09.992Z,2.83
2018-09-19T03:42:38.270Z,2.53
2018-09-19T03:45:09.273Z,2.70
2018-09-19T03:47:37.474Z,2.70
2018-09-19T03:50:05.768Z,3.20
2018-09-19T03:52:34.077Z,3.20
2018-09-19T03:55:02.293Z,2.93
2018-09-19T03:57:30.588Z,2.77
2018-09-19T03:59:58.804Z,2.80
2018-09-19T04:02:27.108Z,3.80
2018-09-19T04:04:55.346Z,2.60
2018-09-19T04:07:23.589Z,3.10
2018-09-19T04:09:51.785Z,2.90
2018-09-19T04:12:20.064Z,3.20
2018-09-19T04:14:48.258Z,2.97
2018-09-19T04:17:16.463Z,3.20
2018-09-19T04:19:44.664Z,3.10
2018-09-19T04:22:12.921Z,3.10
2018-09-19T04:24:41.114Z,3.20
2018-09-19T04:27:09.396Z,3.30
2018-09-19T04:29:37.612Z,3.07
2018-09-19T04:32:05.815Z,3.63
2018-09-19T04:34:34.020Z,3.87
2018-09-19T04:37:02.236Z,4.10
2018-09-19T04:39:30.441Z,3.70
2018-09-19T04:44:33.227Z,4.53
2018-09-19T04:47:01.434Z,3.60
2018-09-19T04:49:29.630Z,3.77
2018-09-19T04:51:57.870Z,4.03
2018-09-19T04:54:26.081Z,3.70
2018-09-19T04:56:54.280Z,3.90
2018-09-19T04:59:22.486Z,4.43
2018-09-19T05:01:50.705Z,4.60
2018-09-19T05:04:18.906Z,3.93
2018-09-19T05:06:47.139Z,3.60
2018-09-19T05:09:15.342Z,3.87
2018-09-19T05:11:43.621Z,3.70
2018-09-19T05:14:11.844Z,3.37
2018-09-19T05:16:40.072Z,3.60
2018-09-19T05:19:08.280Z,3.13
2018-09-19T05:21:36.508Z,3.10
2018-09-19T05:24:04.709Z,2.83
2018-09-19T05:26:32.940Z,3.67
2018-09-19T05:29:01.128Z,3.20
2018-09-19T05:31:29.404Z,3.80
2018-09-19T05:33:57.555Z,3.33
2018-09-19T05:36:25.766Z,2.97
2018-09-19T05:38:53.992Z,3.00
2018-09-19T05:41:22.197Z,3.27
2018-09-19T05:43:50.421Z,3.23
2018-09-19T05:46:18.663Z,3.40
2018-09-19T05:48:46.849Z,3.27
2018-09-19T05:51:15.049Z,3.47
2018-09-19T05:53:43.269Z,3.30
2018-09-19T05:56:12.105Z,3.50
2018-09-19T05:58:40.312Z,3.17
2018-09-19T06:01:08.553Z,3.47
2018-09-19T06:03:36.765Z,3.37
2018-09-19T06:06:05.124Z,3.07
2018-09-19T06:08:33.333Z,3.10
2018-09-19T06:11:01.597Z,3.03
2018-09-19T06:13:29.845Z,3.30
2018-09-19T06:15:58.048Z,3.20
2018-09-19T06:18:26.537Z,3.50
2018-09-19T06:20:54.735Z,2.70
2018-09-19T06:23:22.963Z,2.60
2018-09-19T06:29:22.649Z,3.53
2018-09-19T06:31:50.868Z,3.93
2018-09-19T06:34:19.077Z,3.53
2018-09-19T06:36:47.360Z,3.50
2018-09-19T06:39:15.648Z,4.60
2018-09-19T06:41:44.029Z,12.07
2018-09-19T06:44:12.239Z,5.93
2018-09-19T06:46:40.677Z,4.13
2018-09-19T06:49:08.876Z,3.60
2018-09-19T06:51:37.081Z,3.20
2018-09-19T06:54:05.274Z,3.50
2018-09-19T06:56:33.485Z,3.60
2018-09-19T06:59:01.702Z,3.67
2018-09-19T07:01:29.886Z,3.17
2018-09-19T07:03:58.094Z,3.00
2018-09-19T07:06:26.351Z,3.53
2018-09-19T07:08:54.613Z,3.23
2018-09-19T07:11:22.801Z,3.37
2018-09-19T07:13:51.253Z,3.33
2018-09-19T07:16:19.443Z,3.80
2018-09-19T07:18:47.695Z,3.20
2018-09-19T07:21:15.846Z,4.63
2018-09-19T07:23:44.057Z,4.10
2018-09-19T07:26:12.252Z,3.27
2018-09-19T07:28:40.455Z,3.73
2018-09-19T07:31:08.713Z,3.10
2018-09-19T07:33:36.896Z,3.27
2018-09-19T07:36:05.123Z,3.43
2018-09-19T07:38:33.343Z,3.87
2018-09-19T07:41:01.565Z,10.00
2018-09-19T07:43:29.825Z,6.60
2018-09-19T07:45:58.052Z,5.93
2018-09-19T07:48:26.295Z,4.60
2018-09-19T07:50:54.549Z,4.93
2018-09-19T07:53:22.768Z,4.33
2018-09-19T07:55:51.008Z,3.60
2018-09-19T07:58:19.216Z,3.37
2018-09-19T08:00:47.445Z,3.93
2018-09-19T08:03:17.837Z,3.90
2018-09-19T08:05:46.043Z,3.60
2018-09-19T08:08:14.312Z,4.20
2018-09-19T08:10:42.520Z,3.40
2018-09-19T08:13:11.565Z,3.70
2018-09-19T08:15:39.773Z,3.87
2018-09-19T08:18:07.981Z,4.30
2018-09-19T08:20:36.184Z,4.53
2018-09-19T08:23:04.384Z,3.37
2018-09-19T08:25:32.584Z,3.47
2018-09-19T08:28:00.990Z,3.23
2018-09-19T08:30:29.280Z,3.70
2018-09-19T08:32:57.442Z,3.50
2018-09-19T08:35:25.664Z,3.90
2018-09-19T08:37:53.876Z,3.93
2018-09-19T08:40:22.061Z,4.53
2018-09-19T08:42:50.308Z,4.10
2018-09-19T08:45:18.637Z,3.97
2018-09-19T08:47:46.839Z,3.93
2018-09-19T08:50:15.130Z,4.33
2018-09-19T08:52:43.707Z,4.33
2018-09-19T08:55:11.892Z,4.13
2018-09-19T08:57:40.139Z,9.00
2018-09-19T09:00:09.060Z,4.00
2018-09-19T09:02:37.279Z,3.67
2018-09-19T09:05:05.570Z,4.27
2018-09-19T09:07:33.788Z,4.23
2018-09-19T09:10:02.145Z,4.10
2018-09-19T09:12:30.402Z,3.80
2018-09-19T09:14:58.562Z,5.33
2018-09-19T09:17:26.759Z,4.57
2018-09-19T09:19:55.140Z,4.40
2018-09-19T09:22:23.300Z,4.80
2018-09-19T09:24:51.517Z,4.50
2018-09-19T09:27:19.842Z,4.47
2018-09-19T09:29:47.984Z,4.97
2018-09-19T09:34:44.505Z,3.93
2018-09-19T09:37:12.696Z,4.37
2018-09-19T09:39:40.916Z,3.97
2018-09-19T09:42:09.155Z,5.83
2018-09-19T09:44:37.324Z,4.70
2018-09-19T09:47:05.925Z,5.73
2018-09-19T09:49:34.175Z,4.60
2018-09-19T09:52:02.364Z,4.50
2018-09-19T09:54:30.568Z,4.57
2018-09-19T09:56:58.794Z,4.20
2018-09-19T09:59:27.024Z,4.10
2018-09-19T10:01:55.217Z,4.00
2018-09-19T10:04:23.430Z,4.67
2018-09-19T10:06:51.669Z,4.27
2018-09-19T10:09:19.974Z,4.90
2018-09-19T10:11:48.196Z,4.60
2018-09-19T10:14:16.404Z,5.07
2018-09-19T10:16:44.641Z,4.57
2018-09-19T10:19:12.897Z,4.50
2018-09-19T10:21:41.087Z,4.23
2018-09-19T10:24:09.289Z,4.10
2018-09-19T10:26:37.499Z,4.57
2018-09-19T10:29:05.717Z,4.70
2018-09-19T10:31:33.914Z,4.67
2018-09-19T10:34:02.129Z,5.13
2018-09-19T10:36:30.340Z,4.73
2018-09-19T10:38:58.541Z,4.70
2018-09-19T10:41:26.732Z,5.47
2018-09-19T10:43:54.944Z,4.73
2018-09-19T10:46:23.200Z,5.30
2018-09-19T10:48:51.440Z,5.10
2018-09-19T10:51:19.630Z,4.73
2018-09-19T10:53:47.810Z,3.87
2018-09-19T10:56:16.017Z,5.13
2018-09-19T10:58:44.211Z,5.17
2018-09-19T11:01:12.424Z,5.30
2018-09-19T11:03:40.629Z,4.50
2018-09-19T11:06:08.825Z,5.23
2018-09-19T11:08:37.073Z,4.43
2018-09-19T11:11:05.296Z,4.20
2018-09-19T11:13:33.479Z,4.23
2018-09-19T11:16:01.669Z,4.67
2018-09-19T11:18:29.856Z,4.07
2018-09-19T11:20:58.051Z,4.63
2018-09-19T11:23:26.256Z,4.57
2018-09-19T11:25:54.450Z,3.93
2018-09-19T11:28:22.658Z,4.40
2018-09-19T11:30:50.838Z,3.77
2018-09-19T11:33:19.043Z,4.50
2018-09-19T11:35:47.268Z,4.80
2018-09-19T11:38:15.473Z,5.27
2018-09-19T11:40:43.696Z,5.03
2018-09-19T11:43:11.896Z,5.63
2018-09-19T11:45:40.124Z,5.30
2018-09-19T11:48:08.324Z,5.37
2018-09-19T11:50:36.516Z,5.47
2018-09-19T11:53:08.721Z,5.70
2018-09-19T11:55:36.940Z,5.80
2018-09-19T11:58:05.162Z,6.20
2018-09-19T12:00:33.365Z,5.20
2018-09-19T12:03:01.564Z,6.00
2018-09-19T12:05:29.757Z,5.63
2018-09-19T12:07:57.959Z,6.40
2018-09-19T12:10:26.159Z,5.97
2018-09-19T12:12:54.385Z,6.03
2018-09-19T12:15:22.557Z,6.80
2018-09-19T12:17:50.776Z,5.73
2018-09-19T12:20:18.963Z,6.17
2018-09-19T12:22:47.253Z,5.87
2018-09-19T12:25:15.432Z,6.23
2018-09-19T12:27:43.631Z,6.97
2018-09-19T12:30:11.840Z,5.40
2018-09-19T12:32:40.076Z,5.83
2018-09-19T12:35:08.284Z,5.00
2018-09-19T12:37:36.481Z,5.97
2018-09-19T12:40:05.248Z,6.43
2018-09-19T12:42:33.450Z,6.30
2018-09-19T12:45:01.652Z,5.20
2018-09-19T12:47:29.893Z,5.00
2018-09-19T12:49:58.080Z,5.87
2018-09-19T12:52:26.288Z,5.07
2018-09-19T12:54:54.486Z,5.00
2018-09-19T12:57:22.713Z,5.30
2018-09-19T12:59:51.017Z,5.47
2018-09-19T13:02:20.180Z,5.27
2018-09-19T13:04:48.383Z,4.60
2018-09-19T13:07:16.581Z,4.83
2018-09-19T13:09:44.788Z,4.83
2018-09-19T13:12:13.011Z,4.70
2018-09-19T13:14:41.358Z,5.10
2018-09-19T13:17:09.594Z,5.17
2018-09-19T13:19:37.809Z,5.13
2018-09-19T13:22:06.002Z,4.50
2018-09-19T13:24:34.192Z,4.30
2018-09-19T13:27:02.371Z,4.73
2018-09-19T13:29:30.571Z,5.10
2018-09-19T13:31:58.776Z,4.47
2018-09-19T13:34:26.969Z,5.03
2018-09-19T13:36:55.229Z,4.83
2018-09-19T13:39:23.437Z,5.00
2018-09-19T13:41:51.609Z,5.37
2018-09-19T13:44:19.797Z,4.97
2018-09-19T13:46:47.993Z,5.27
2018-09-19T13:49:26.244Z,4.93
2018-09-19T13:51:54.514Z,5.43
2018-09-19T13:54:22.711Z,5.07
2018-09-19T13:56:50.911Z,4.87
2018-09-19T13:59:19.173Z,4.83
2018-09-19T14:01:47.376Z,4.60
2018-09-19T14:04:15.631Z,4.87
2018-09-19T14:06:43.781Z,5.53
2018-09-19T14:09:11.989Z,4.73
2018-09-19T14:11:40.214Z,5.70
2018-09-19T14:14:08.376Z,6.67
2018-09-19T14:16:36.591Z,4.83
2018-09-19T14:19:04.832Z,5.80
2018-09-19T14:21:33.024Z,4.83
2018-09-19T14:24:01.213Z,5.00
2018-09-19T14:26:29.424Z,5.60
2018-09-19T14:28:57.641Z,5.90
2018-09-19T14:31:25.840Z,5.00
2018-09-19T14:33:54.037Z,4.57
2018-09-19T14:36:22.245Z,5.23
2018-09-19T14:38:50.433Z,4.70
2018-09-19T14:41:18.669Z,5.07
2018-09-19T14:43:46.848Z,5.60
2018-09-19T14:46:15.077Z,4.90
2018-09-19T14:48:43.575Z,5.27
2018-09-19T14:51:11.742Z,5.30
2018-09-19T14:53:39.946Z,5.00
2018-09-19T14:56:08.200Z,5.20
2018-09-19T14:58:36.428Z,4.90
2018-09-19T15:01:04.761Z,4.97
2018-09-19T15:03:32.951Z,5.57
2018-09-19T15:06:02.261Z,4.87
2018-09-19T15:08:30.478Z,5.40
2018-09-19T15:10:58.717Z,5.30
2018-09-19T15:13:26.916Z,5.27
2018-09-19T15:15:55.264Z,5.33
2018-09-19T15:18:23.912Z,5.33
2018-09-19T15:20:52.124Z,5.33
2018-09-19T15:23:20.325Z,5.83
2018-09-19T15:25:48.521Z,5.70
2018-09-19T15:28:16.728Z,5.67
2018-09-19T15:30:44.934Z,5.03
2018-09-19T15:33:13.167Z,5.03
2018-09-19T15:35:41.377Z,4.90
2018-09-19T15:38:09.635Z,5.47
2018-09-19T15:40:37.816Z,5.33
2018-09-19T15:43:06.153Z,5.37
2018-09-19T15:45:34.360Z,5.30
2018-09-19T15:48:02.552Z,5.23
2018-09-19T15:50:30.757Z,5.97
2018-09-19T15:52:58.942Z,5.63
2018-09-19T15:55:27.162Z,4.57
2018-09-19T15:57:55.392Z,5.90
2018-09-19T16:00:23.525Z,5.27
2018-09-19T16:02:51.726Z,4.80
2018-09-19T16:05:19.909Z,5.63
2018-09-19T16:07:48.120Z,5.27
2018-09-19T16:10:16.301Z,5.07
2018-09-19T16:12:44.496Z,5.27
2018-09-19T16:15:12.698Z,4.70
2018-09-19T16:17:40.970Z,4.83
2018-09-19T16:20:09.173Z,5.17
2018-09-19T16:22:37.396Z,5.17
2018-09-19T16:25:05.604Z,5.87
2018-09-19T16:27:33.810Z,5.10
2018-09-19T16:30:02.017Z,5.10
2018-09-19T16:32:31.330Z,4.83
2018-09-19T16:34:59.528Z,5.50
2018-09-19T16:37:27.742Z,5.00
2018-09-19T16:39:56.349Z,4.97
2018-09-19T16:42:24.681Z,5.10
2018-09-19T16:44:52.946Z,4.67
2018-09-19T16:47:21.148Z,4.53
2018-09-19T16:49:49.672Z,4.37
2018-09-19T16:52:18.281Z,4.93
2018-09-19T16:54:46.624Z,4.67
2018-09-19T16:57:14.877Z,4.90
2018-09-19T16:59:43.277Z,5.73
2018-09-19T17:02:11.449Z,5.40
2018-09-19T17:04:40.299Z,6.43
2018-09-19T17:07:08.514Z,4.60
2018-09-19T17:09:36.740Z,5.03
2018-09-19T17:12:04.973Z,4.90
2018-09-19T17:14:33.244Z,4.50
2018-09-19T17:17:01.489Z,4.60
2018-09-19T17:19:30.362Z,6.00
2018-09-19T17:22:01.401Z,7.60
2018-09-19T17:24:30.900Z,5.80
2018-09-19T17:27:01.044Z,6.10
2018-09-19T17:29:29.655Z,5.60
2018-09-19T17:31:57.873Z,5.90
2018-09-19T17:34:31.300Z,6.07
2018-09-19T17:37:00.720Z,6.87
2018-09-19T17:39:29.025Z,7.03
2018-09-19T17:42:00.049Z,6.87
2018-09-19T17:44:33.490Z,14.03
2018-09-19T17:47:01.733Z,25.23
2018-09-19T17:49:30.316Z,8.90
2018-09-19T17:51:59.354Z,7.47
2018-09-19T17:54:27.743Z,16.23
2018-09-19T17:56:56.201Z,16.73
2018-09-19T17:59:24.847Z,9.27
2018-09-19T18:01:53.876Z,14.07
2018-09-19T18:04:22.319Z,9.47
2018-09-19T18:06:50.768Z,7.93
2018-09-19T18:09:20.281Z,10.33
2018-09-19T18:11:50.012Z,8.30
2018-09-19T18:14:20.266Z,9.03
2018-09-19T18:16:48.782Z,9.70
2018-09-19T18:19:17.092Z,9.13
2018-09-19T18:21:46.003Z,9.57
2018-09-19T18:24:15.504Z,8.33
2018-09-19T18:26:43.854Z,8.07
2018-09-19T18:29:12.410Z,7.90
2018-09-19T18:31:41.617Z,6.97
2018-09-19T18:34:10.524Z,7.30
2018-09-19T18:36:38.867Z,7.30
2018-09-19T18:39:07.266Z,9.03
2018-09-19T18:41:36.990Z,8.70
2018-09-19T18:44:06.529Z,8.30
2018-09-19T18:46:35.687Z,8.03
2018-09-19T18:49:04.264Z,8.53
2018-09-19T18:51:32.531Z,9.30
2018-09-19T18:54:01.141Z,7.43
2018-09-19T18:56:30.273Z,8.20
2018-09-19T18:58:59.345Z,9.17
2018-09-19T19:01:27.571Z,9.47
2018-09-19T19:03:56.131Z,10.73
2018-09-19T19:06:25.173Z,12.20
2018-09-19T19:08:53.388Z,11.50
2018-09-19T19:11:21.624Z,9.40
2018-09-19T19:13:50.276Z,9.30
2018-09-19T19:16:23.692Z,9.60
2018-09-19T19:18:52.195Z,9.67
2018-09-19T19:21:20.764Z,9.20
2018-09-19T19:23:52.981Z,11.20
2018-09-19T19:26:22.995Z,10.20
2018-09-19T19:28:52.565Z,9.30
2018-09-19T19:32:45.276Z,8.17
2018-09-19T19:35:13.509Z,9.57
2018-09-19T19:37:41.933Z,9.50
2018-09-19T19:40:10.692Z,9.90
2018-09-19T19:42:39.694Z,9.23
2018-09-19T19:45:07.941Z,8.03
2018-09-19T19:47:36.320Z,9.53
2018-09-19T19:50:05.117Z,9.90
2018-09-19T19:52:33.337Z,9.03
2018-09-19T19:55:02.821Z,10.50
2018-09-19T19:57:31.209Z,11.10
2018-09-19T19:59:59.417Z,10.37
2018-09-19T20:02:27.681Z,11.73
2018-09-19T20:04:55.885Z,9.53
2018-09-19T20:07:24.099Z,10.70
2018-09-19T20:09:52.322Z,12.73
2018-09-19T20:12:20.528Z,12.87
2018-09-19T20:14:48.840Z,11.83
2018-09-19T20:17:17.052Z,10.17
2018-09-19T20:19:45.960Z,11.60
2018-09-19T20:22:17.404Z,10.93
2018-09-19T20:24:45.637Z,11.30
2018-09-19T20:27:13.900Z,10.80
2018-09-19T20:29:42.129Z,11.03
2018-09-19T20:32:10.320Z,10.90
2018-09-19T20:34:38.547Z,10.30
2018-09-19T20:37:07.199Z,10.30
2018-09-19T20:39:35.397Z,9.83
2018-09-19T20:42:04.482Z,10.97
2018-09-19T20:44:32.689Z,10.67
2018-09-19T20:47:02.546Z,9.50
2018-09-19T20:49:30.716Z,10.50
2018-09-19T20:51:58.922Z,11.17
2018-09-19T20:54:27.228Z,12.20
2018-09-19T20:56:55.428Z,13.27
2018-09-19T20:59:23.617Z,19.87
2018-09-19T21:01:51.828Z,29.47
2018-09-19T21:04:20.051Z,28.37
2018-09-19T21:06:48.292Z,27.13
2018-09-19T21:09:20.316Z,21.03
2018-09-19T21:11:48.578Z,21.07
2018-09-19T21:14:17.186Z,14.53
2018-09-19T21:16:45.392Z,13.07
2018-09-19T21:19:13.616Z,10.57
2018-09-19T21:21:41.822Z,11.63
2018-09-19T21:24:13.949Z,11.67
2018-09-19T21:26:42.217Z,11.03
2018-09-19T21:29:10.457Z,10.70
2018-09-19T21:31:38.675Z,10.10
2018-09-19T21:34:06.906Z,10.40
2018-09-19T21:36:35.098Z,10.37
2018-09-19T21:39:05.241Z,9.90
2018-09-19T21:41:33.436Z,9.90
2018-09-19T21:44:02.935Z,9.07
2018-09-19T21:46:32.406Z,9.47
2018-09-19T21:49:03.294Z,9.80
2018-09-19T21:51:31.510Z,17.03
2018-09-19T21:53:59.717Z,17.27
2018-09-19T21:56:27.936Z,17.33
2018-09-19T21:58:56.156Z,16.70
2018-09-19T22:01:29.761Z,11.13
2018-09-19T22:03:58.112Z,13.37
2018-09-19T22:06:26.317Z,13.03
2018-09-19T22:08:54.608Z,13.27
2018-09-19T22:11:22.828Z,10.77
2018-09-19T22:13:51.423Z,10.47
2018-09-19T22:16:19.653Z,12.63
2018-09-19T22:18:48.965Z,11.00
2018-09-19T22:21:17.355Z,9.13
2018-09-19T22:23:46.507Z,9.30
2018-09-19T22:26:14.724Z,9.43
2018-09-19T22:28:42.924Z,9.47
2018-09-19T22:31:11.178Z,8.97
2018-09-19T22:33:39.373Z,8.07
2018-09-19T22:36:07.581Z,8.30
2018-09-19T22:38:35.804Z,7.50
2018-09-19T22:41:04.005Z,11.13
2018-09-19T22:43:32.224Z,10.03
2018-09-19T22:46:00.430Z,9.67
2018-09-19T22:48:28.620Z,9.57
2018-09-19T22:50:56.830Z,10.53
2018-09-19T22:53:25.046Z,9.80
2018-09-19T22:55:53.496Z,8.63
2018-09-19T22:58:23.549Z,7.57
2018-09-19T23:00:51.761Z,11.00
2018-09-19T23:03:21.473Z,8.30
2018-09-19T23:05:49.668Z,8.07
2018-09-19T23:08:20.783Z,8.33
2018-09-19T23:10:48.985Z,7.70
2018-09-19T23:13:18.988Z,7.97
2018-09-19T23:15:47.617Z,7.93
2018-09-19T23:18:16.889Z,7.30
2018-09-19T23:20:47.907Z,6.93
2018-09-19T23:23:18.433Z,6.77
2018-09-19T23:25:48.386Z,7.30
2018-09-19T23:28:17.620Z,6.67
2018-09-19T23:30:45.807Z,6.33
2018-09-19T23:33:51.410Z,6.47
2018-09-19T23:36:19.759Z,6.50
2018-09-19T23:38:47.968Z,7.13
2018-09-19T23:41:16.156Z,6.83
2018-09-19T23:43:44.361Z,6.70
2018-09-19T23:46:12.569Z,6.80
2018-09-19T23:48:40.780Z,6.03
2018-09-19T23:51:09.025Z,6.90
2018-09-19T23:53:37.233Z,6.50
2018-09-19T23:56:05.438Z,6.20
2018-09-19T23:58:33.636Z,7.00
